Time;durP1;ratioP1;P1;durP2;ratioP2;P2;SDS_P1;SDS_P2;PMS_P1;PMS_P2;Temp;Humidity;BMP_temperature;BMP_pressure;BME280_temperature;BME280_humidity;BME280_pressure;Samples;Min_cycle;Max_cycle;Signal;HPM_P1;HPM_P2
2022/04/19 00:02:05;;;;;;;1.40;1.30;;;;;;;2.45;100.00;61069.88;5112177;28;20449;-73
2022/04/19 00:04:31;;;;;;;2.00;1.40;;;;;;;2.70;100.00;61092.84;5112251;28;20503;-72
2022/04/19 00:06:58;;;;;;;2.03;1.50;;;;;;;2.88;100.00;61109.47;5112174;28;20505;-72
2022/04/19 00:09:27;;;;;;;1.20;1.00;;;;;;;3.03;100.00;61127.91;5112127;28;21046;-73
2022/04/19 00:11:53;;;;;;;1.70;1.40;;;;;;;2.51;100.00;61075.72;5112034;28;20994;-72
2022/04/19 00:14:20;;;;;;;1.80;1.60;;;;;;;2.65;100.00;61088.06;5112589;28;20445;-72
2022/04/19 00:16:47;;;;;;;2.10;1.70;;;;;;;2.55;100.00;61075.47;5111937;28;20903;-73
2022/04/19 00:19:14;;;;;;;1.83;1.60;;;;;;;2.56;100.00;61081.53;5112241;28;20881;-72
2022/04/19 00:21:41;;;;;;;4.00;1.80;;;;;;;2.67;100.00;61092.69;5112221;28;20501;-72
2022/04/19 00:24:08;;;;;;;1.90;1.70;;;;;;;2.71;100.00;61096.41;5111951;28;20444;-73
2022/04/19 00:26:36;;;;;;;1.67;1.57;;;;;;;2.44;100.00;61068.78;5112087;28;20449;-73
2022/04/19 00:29:04;;;;;;;2.90;1.90;;;;;;;2.70;100.00;61090.34;5111989;28;20537;-72
2022/04/19 00:31:32;;;;;;;5.50;2.23;;;;;;;2.27;100.00;61050.75;5111835;28;20445;-71
2022/04/19 00:33:58;;;;;;;2.47;1.73;;;;;;;2.83;100.00;61109.16;5112121;28;20484;-72
2022/04/19 00:36:26;;;;;;;2.43;1.87;;;;;;;2.79;100.00;61102.41;5111873;28;20870;-73
2022/04/19 00:38:53;;;;;;;3.27;1.87;;;;;;;2.42;100.00;61061.09;5112030;28;20911;-71
2022/04/19 00:41:19;;;;;;;2.63;1.90;;;;;;;2.55;100.00;61080.50;5111726;28;20480;-72
2022/04/19 00:43:48;;;;;;;3.13;2.07;;;;;;;2.58;100.00;61082.63;5111726;28;20513;-72
2022/04/19 00:46:14;;;;;;;4.57;2.30;;;;;;;2.46;100.00;61070.38;5111828;28;20445;-72
2022/04/19 00:48:42;;;;;;;3.37;2.67;;;;;;;2.54;100.00;61079.41;5111742;28;20794;-73
2022/04/19 00:51:10;;;;;;;4.40;2.70;;;;;;;2.58;100.00;61077.59;5111698;28;20544;-73
2022/04/19 00:53:37;;;;;;;6.07;3.00;;;;;;;2.65;100.00;61090.03;5111673;28;20488;-73
2022/04/19 00:56:04;;;;;;;4.93;2.63;;;;;;;2.62;100.00;61084.34;5111549;28;20499;-72
2022/04/19 00:58:31;;;;;;;3.40;3.10;;;;;;;2.52;100.00;61077.28;5111466;28;20822;-72
2022/04/19 01:01:02;;;;;;;3.97;2.80;;;;;;;2.64;100.00;61089.00;5111534;28;20440;-72
2022/04/19 01:03:29;;;;;;;3.70;3.10;;;;;;;2.36;100.00;61057.25;5110496;28;20444;-72
2022/04/19 01:05:58;;;;;;;4.20;2.83;;;;;;;2.55;100.00;61080.50;5111677;28;20444;-72
2022/04/19 01:08:26;;;;;;;4.27;3.17;;;;;;;2.63;100.00;61088.44;5111533;28;20943;-73
2022/04/19 01:13:17;;;;;;;4.67;3.20;;;;;;;2.58;100.00;61080.09;5111608;28;20445;-74
2022/04/19 01:13:39;;;;;;;4.07;3.13;;;;;;;2.60;100.00;61082.22;5111499;28;20533;-72
2022/04/19 01:16:09;;;;;;;5.70;3.53;;;;;;;2.69;100.00;61094.28;5111396;28;21062;-73
2022/04/19 01:18:36;;;;;;;3.50;3.20;;;;;;;2.53;100.00;61075.84;5111511;28;20898;-74
2022/04/19 01:21:04;;;;;;;6.80;3.67;;;;;;;2.62;100.00;61081.84;5111263;28;20459;-73
2022/04/19 01:23:32;;;;;;;3.97;3.33;;;;;;;2.56;100.00;61078.50;5111430;28;20444;-73
2022/04/19 01:26:00;;;;;;;4.57;3.00;;;;;;;2.48;100.00;61073.03;5111464;28;20482;-72
2022/04/19 01:28:27;;;;;;;4.60;3.30;;;;;;;2.45;100.00;61069.34;5111194;28;20477;-72
2022/04/19 01:30:54;;;;;;;4.33;3.33;;;;;;;2.47;100.00;61069.47;5111339;28;20818;-72
2022/04/19 01:33:22;;;;;;;5.40;3.47;;;;;;;2.48;100.00;61067.47;5111250;28;20487;-74
2022/04/19 01:35:49;;;;;;;4.37;3.40;;;;;;;2.45;100.00;61064.31;5111728;28;20532;-74
2022/04/19 01:38:16;;;;;;;4.13;3.00;;;;;;;2.60;100.00;61082.22;5118414;28;20478;-72
2022/04/19 01:40:44;;;;;;;3.50;3.03;;;;;;;2.51;100.00;61073.19;5116913;28;20440;-73
2022/04/19 01:43:11;;;;;;;5.10;3.00;;;;;;;2.31;100.00;61055.00;5115678;28;20444;-72
2022/04/19 01:45:38;;;;;;;4.30;3.17;;;;;;;2.21;100.00;61039.34;5115315;28;20441;-73
2022/04/19 01:48:06;;;;;;;5.67;3.63;;;;;;;2.38;100.00;61056.84;5114652;28;20513;-73
2022/04/19 01:50:33;;;;;;;4.63;3.47;;;;;;;2.35;100.00;61059.25;5114701;28;20445;-73
2022/04/19 01:53:01;;;;;;;4.57;3.30;;;;;;;2.35;100.00;61054.22;5115043;28;20607;-72
2022/04/19 01:55:27;;;;;;;5.57;2.90;;;;;;;2.53;100.00;61075.84;5114759;28;20532;-73
2022/04/19 01:57:59;;;;;;;4.33;3.20;;;;;;;2.43;100.00;61064.69;5114809;28;20437;-71
2022/04/19 02:00:29;;;;;;;4.23;3.30;;;;;;;2.42;100.00;61064.16;5114573;28;20433;-72
2022/04/19 02:02:57;;;;;;;4.53;3.70;;;;;;;2.44;100.00;61063.78;5114599;28;20444;-71
2022/04/19 02:05:24;;;;;;;4.27;3.30;;;;;;;2.52;100.00;61071.72;5114692;28;20436;-72
2022/04/19 02:07:52;;;;;;;5.53;3.43;;;;;;;2.62;100.00;61084.88;5114774;28;20497;-72
2022/04/19 02:10:20;;;;;;;5.33;3.33;;;;;;;2.75;100.00;61100.66;5114387;28;20445;-73
2022/04/19 02:12:47;;;;;;;6.03;3.73;;;;;;;2.67;100.00;61092.69;5114186;28;20906;-72
2022/04/19 02:15:15;;;;;;;4.60;3.70;;;;;;;2.61;100.00;61083.81;5112912;28;20476;-72
2022/04/19 02:17:46;;;;;;;5.63;3.10;;;;;;;2.71;100.00;61093.91;5113992;28;20467;-71
2022/04/19 02:20:14;;;;;;;5.00;3.30;;;;;;;2.77;100.00;61097.75;5114113;28;20469;-72
2022/04/19 02:22:42;;;;;;;4.10;3.10;;;;;;;2.74;100.00;61099.63;5114319;27;20444;-71
2022/04/19 02:25:11;;;;;;;3.70;2.60;;;;;;;2.13;100.00;61038.41;5113973;28;20441;-72
2022/04/19 02:27:39;;;;;;;3.63;2.60;;;;;;;2.62;100.00;61081.84;5113881;28;20452;-72
2022/04/19 02:30:07;;;;;;;4.70;3.10;;;;;;;2.61;100.00;61083.81;5113577;28;20557;-72
2022/04/19 02:32:36;;;;;;;4.13;2.93;;;;;;;2.26;100.00;61049.13;5113523;28;21002;-73
2022/04/19 02:35:03;;;;;;;4.43;3.47;;;;;;;2.41;100.00;61060.59;5113900;28;20447;-73
2022/04/19 02:37:32;;;;;;;4.57;3.53;;;;;;;2.24;100.00;61047.56;5113833;28;20536;-72
2022/04/19 02:39:59;;;;;;;4.87;3.50;;;;;;;2.52;100.00;61072.25;5113670;28;20448;-73
2022/04/19 02:42:26;;;;;;;4.90;4.00;;;;;;;2.54;100.00;61079.41;5113558;28;20475;-74
2022/04/19 02:44:53;;;;;;;5.00;3.67;;;;;;;2.39;100.00;61063.50;5113646;28;20529;-73
2022/04/19 02:47:20;;;;;;;3.90;3.40;;;;;;;2.36;100.00;61059.75;5113642;28;20455;-72
2022/04/19 02:49:49;;;;;;;3.90;3.50;;;;;;;2.45;100.00;61074.91;5113432;28;20444;-73
2022/04/19 02:52:17;;;;;;;4.27;3.20;;;;;;;2.39;100.00;61063.50;5113431;28;20443;-75
2022/04/19 02:54:44;;;;;;;6.13;3.50;;;;;;;2.44;100.00;61068.25;5113499;28;20864;-73
2022/04/19 02:57:10;;;;;;;4.43;3.50;;;;;;;2.35;100.00;61056.72;5113157;28;20452;-73
2022/04/19 02:59:37;;;;;;;4.27;3.43;;;;;;;2.40;100.00;61062.03;5113588;28;20441;-73
2022/04/19 03:02:06;;;;;;;4.67;3.40;;;;;;;1.70;100.00;60990.22;5112850;28;20521;-72
2022/04/19 03:04:32;;;;;;;4.47;3.30;;;;;;;2.47;100.00;61068.94;5113105;28;20505;-73
2022/04/19 03:07:01;;;;;;;4.93;3.70;;;;;;;2.09;100.00;61031.63;5113253;28;20437;-72
2022/04/19 03:09:27;;;;;;;4.93;3.60;;;;;;;2.53;100.00;61073.34;5113070;28;20436;-72
2022/04/19 03:11:54;;;;;;;4.97;3.77;;;;;;;2.36;100.00;61057.25;5112953;28;20502;-72
2022/04/19 03:14:21;;;;;;;4.87;3.60;;;;;;;2.45;100.00;61067.34;5111488;28;20898;-73
2022/04/19 03:16:48;;;;;;;5.20;4.03;;;;;;;2.53;100.00;61075.84;5112879;28;20507;-72
2022/04/19 03:19:15;;;;;;;5.87;4.07;;;;;;;2.44;100.00;61068.78;5112978;28;20497;-72
2022/04/19 03:21:43;;;;;;;4.47;3.87;;;;;;;2.51;100.00;61076.25;5112967;28;20436;-73
2022/04/19 03:29:40;;;;;;;5.97;4.20;;;;;;;2.45;100.00;61069.88;5112836;28;20471;-73
2022/04/19 03:32:09;;;;;;;6.03;4.50;;;;;;;2.65;100.00;61090.03;5112710;28;20506;-72
2022/04/19 03:34:39;;;;;;;8.43;4.70;;;;;;;2.61;100.00;61080.75;5113008;28;20481;-73
2022/04/19 03:37:06;;;;;;;6.60;4.80;;;;;;;2.23;100.00;61044.00;5112948;28;20429;-72
2022/04/19 03:39:34;;;;;;;7.03;5.20;;;;;;;2.47;100.00;61072.00;5112639;28;20445;-73
2022/04/19 03:42:03;;;;;;;8.73;5.70;;;;;;;2.49;100.00;61073.59;5112667;28;20877;-72
2022/04/19 03:44:31;;;;;;;7.00;5.37;;;;;;;2.63;100.00;61085.94;5112421;28;20440;-73
2022/04/19 03:47:09;;;;;;;9.23;5.50;;;;;;;2.65;100.00;61090.03;5112305;28;20951;-73
2022/04/19 03:49:36;;;;;;;7.17;5.03;;;;;;;2.53;100.00;61078.38;5113065;28;20498;-73
2022/04/19 03:52:04;;;;;;;8.00;5.30;;;;;;;2.48;100.00;61070.53;5112825;28;20490;-73
2022/04/19 03:54:34;;;;;;;8.20;5.63;;;;;;;2.61;100.00;61080.75;5112945;28;20919;-72
2022/04/19 03:57:04;;;;;;;6.87;5.20;;;;;;;2.69;100.00;61091.78;5112684;28;20444;-72
2022/04/19 03:59:32;;;;;;;7.40;5.30;;;;;;;2.31;100.00;61060.03;5111662;28;20539;-72
2022/04/19 04:02:00;;;;;;;6.77;5.13;;;;;;;2.16;100.00;61039.06;5112224;28;20812;-72
2022/04/19 04:04:30;;;;;;;7.10;5.27;;;;;;;2.53;100.00;61077.84;5112303;28;20513;-73
2022/04/19 04:06:57;;;;;;;7.57;5.40;;;;;;;2.64;100.00;61089.50;5112234;28;20445;-72
2022/04/19 04:09:24;;;;;;;7.77;6.23;;;;;;;2.74;100.00;61094.59;5112559;28;20531;-72
2022/04/19 04:11:51;;;;;;;8.93;6.83;;;;;;;2.75;100.00;61095.63;5112263;28;20498;-74
2022/04/19 04:14:19;;;;;;;9.40;6.93;;;;;;;3.01;100.00;61123.28;5112007;28;20476;-72
2022/04/19 04:16:46;;;;;;;8.87;6.97;;;;;;;2.70;100.00;61090.34;5112100;28;20456;-72
2022/04/19 04:19:12;;;;;;;8.93;6.73;;;;;;;2.47;100.00;61066.97;5112251;28;20498;-73
2022/04/19 04:21:39;;;;;;;7.90;6.00;;;;;;;2.67;100.00;61087.13;5112206;28;20445;-72
2022/04/19 04:24:06;;;;;;;10.53;7.67;;;;;;;2.81;100.00;61105.06;5112273;28;20513;-73
2022/04/19 04:26:34;;;;;;;12.97;8.63;;;;;;;2.86;100.00;61107.34;5111863;28;20823;-75
2022/04/19 04:29:01;;;;;;;13.07;8.80;;;;;;;2.80;100.00;61103.47;5111834;28;20484;-71
2022/04/19 04:31:29;;;;;;;10.93;8.47;;;;;;;3.10;100.00;61135.34;5113290;28;20533;-71
2022/04/19 04:33:56;;;;;;;10.87;7.60;;;;;;;2.96;100.00;61123.00;5111674;28;20512;-72
2022/04/19 04:36:29;;;;;;;10.67;7.50;;;;;;;3.07;100.00;61129.66;5111666;28;20989;-72
2022/04/19 04:38:56;;;;;;;9.03;7.03;;;;;;;2.93;100.00;61122.31;5111817;28;21015;-71
2022/04/19 04:41:23;;;;;;;12.00;6.73;;;;;;;3.12;100.00;61140.00;5111284;28;20441;-73
2022/04/19 04:43:51;;;;;;;8.97;6.67;;;;;;;2.89;100.00;61110.50;5093207;28;20503;-73
2022/04/19 04:51:48;;;;;;;8.43;5.93;;;;;;;3.31;100.00;61155.16;5098211;28;20416;-73
2022/04/19 04:54:15;;;;;;;8.17;6.17;;;;;;;3.21;100.00;61150.09;5101376;28;20495;-73
2022/04/19 04:56:43;;;;;;;10.77;6.70;;;;;;;3.51;100.00;61178.94;5104814;28;20832;-74
2022/04/19 04:59:10;;;;;;;7.47;5.83;;;;;;;3.50;100.00;61175.38;5108192;28;20514;-74
2022/04/19 05:01:37;;;;;;;9.07;7.23;;;;;;;3.55;100.00;61185.72;5103804;28;20445;-73
2022/04/19 05:04:05;;;;;;;11.07;7.70;;;;;;;3.72;100.00;61200.75;5111138;28;20520;-73
2022/04/19 05:06:32;;;;;;;9.53;6.60;;;;;;;3.95;100.00;61228.25;5106632;28;20834;-74
2022/04/19 05:08:59;;;;;;;8.23;6.30;;;;;;;4.16;100.00;61247.56;5106901;28;20531;-74
2022/04/19 05:11:26;;;;;;;7.57;5.00;;;;;;;3.91;100.00;61218.44;5097709;28;20980;-73
2022/04/19 05:13:52;;;;;;;6.93;4.87;;;;;;;4.11;100.00;61245.28;5106414;28;20507;-73
2022/04/19 05:16:19;;;;;;;5.13;4.20;;;;;;;4.33;100.00;61265.13;5098896;28;20462;-72
2022/04/19 05:18:46;;;;;;;5.20;3.90;;;;;;;3.89;100.00;61216.84;5097230;28;20947;-73
2022/04/19 05:21:15;;;;;;;5.10;4.00;;;;;;;4.12;100.00;61246.38;5095452;28;20445;-74
2022/04/19 05:23:42;;;;;;;8.47;4.53;;;;;;;4.32;100.00;61267.13;5100456;28;20444;-73
2022/04/19 05:26:09;;;;;;;6.57;5.70;;;;;;;4.38;100.00;61267.91;5129105;28;20448;-71
2022/04/19 05:28:36;;;;;;;5.30;4.20;;;;;;;4.38;100.00;61270.44;5118119;28;20544;-73
2022/04/19 05:31:03;;;;;;;5.53;4.37;;;;;;;4.10;100.00;61233.63;5115488;27;20440;-73
2022/04/19 05:33:31;;;;;;;8.97;4.97;;;;;;;4.41;100.00;61271.13;5115140;28;20604;-73
2022/04/19 05:35:57;;;;;;;6.33;5.00;;;;;;;4.52;100.00;61288.41;5115012;28;20899;-73
2022/04/19 05:38:26;;;;;;;6.40;5.00;;;;;;;4.60;100.00;61294.41;5114720;28;20444;-73
2022/04/19 05:40:56;;;;;;;6.83;5.20;;;;;;;4.65;100.00;61299.19;5114623;28;20498;-75
2022/04/19 05:43:23;;;;;;;6.40;5.00;;;;;;;4.72;100.00;61309.16;5101598;28;20449;-73
2022/04/19 05:45:50;;;;;;;6.60;5.03;;;;;;;4.87;100.00;61325.13;5096803;28;20522;-74
2022/04/19 05:48:17;;;;;;;6.87;5.30;;;;;;;5.07;100.00;61344.44;5094201;28;20449;-74
2022/04/19 05:50:44;;;;;;;6.37;4.97;;;;;;;5.36;100.00;61377.34;5098479;28;20456;-74
2022/04/19 05:53:11;;;;;;;6.97;4.70;;;;;;;5.43;100.00;61384.81;5113487;28;20448;-76
2022/04/19 05:55:40;;;;;;;6.77;5.27;;;;;;;5.46;100.00;61387.97;5097703;28;20452;-74
2022/04/19 05:58:07;;;;;;;10.33;6.93;;;;;;;5.50;100.00;61391.72;5093894;28;21038;-73
2022/04/19 06:00:33;;;;;;;7.10;5.43;;;;;;;5.64;100.00;61404.09;5094007;28;20503;-74
2022/04/19 06:05:46;;;;;;;4.10;3.50;;;;;;;5.41;100.00;61377.63;5114212;28;20440;-71
2022/04/19 06:08:14;;;;;;;4.53;3.50;;;;;;;5.25;100.00;61363.09;5112931;27;20495;-72
2022/04/19 06:10:42;;;;;;;5.57;3.60;;;;;;;5.06;100.00;61345.38;5093912;28;20572;-71
2022/04/19 06:13:09;;;;;;;6.43;4.20;;;;;;;4.63;100.00;61299.59;5095839;28;20433;-72
2022/04/19 06:15:37;;;;;;;6.80;4.17;;;;;;;5.06;100.00;61340.31;5114219;28;21013;-71
2022/04/19 06:18:05;;;;;;;7.97;5.03;;;;;;;4.85;100.00;61320.50;5114011;28;20461;-73
2022/04/19 06:20:31;;;;;;;7.70;5.07;;;;;;;4.29;100.00;61264.44;5114076;28;20441;-72
2022/04/19 06:22:58;;;;;;;7.30;5.47;;;;;;;4.45;100.00;61275.38;5113616;28;20441;-72
2022/04/19 06:25:25;;;;;;;8.90;5.30;;;;;;;4.56;100.00;61287.06;5113644;28;20448;-72
2022/04/19 06:27:56;;;;;;;6.73;4.87;;;;;;;3.99;100.00;61235.03;5103166;28;20450;-73
2022/04/19 06:30:24;;;;;;;5.63;4.90;;;;;;;4.05;100.00;61238.91;5094666;28;20513;-72
2022/04/19 06:32:51;;;;;;;7.83;5.93;;;;;;;4.66;100.00;61300.78;5113754;28;20476;-73
2022/04/19 06:35:18;;;;;;;12.43;7.00;;;;;;;4.46;100.00;61279.50;5113459;28;20487;-73
2022/04/19 06:37:44;;;;;;;11.63;8.13;;;;;;;4.41;100.00;61276.16;5116259;28;20951;-72
2022/04/19 06:40:12;;;;;;;14.77;8.73;;;;;;;4.55;100.00;61288.53;5113898;28;20449;-73
2022/04/19 06:42:39;;;;;;;11.70;8.37;;;;;;;4.60;100.00;61291.88;5113515;28;20445;-73
2022/04/19 06:45:10;;;;;;;12.67;9.80;;;;;;;4.79;100.00;61321.66;5103092;28;20438;-73
2022/04/19 06:47:36;;;;;;;16.13;10.13;;;;;;;4.80;100.00;61317.69;5095891;28;20456;-73
2022/04/19 06:50:04;;;;;;;16.37;9.97;;;;;;;4.49;100.00;61284.69;5113244;28;20436;-72
2022/04/19 06:52:31;;;;;;;13.80;10.67;;;;;;;4.56;100.00;61290.13;5112891;28;20506;-73
2022/04/19 06:54:58;;;;;;;16.90;10.70;;;;;;;4.53;100.00;61288.94;5113102;28;20480;-73
2022/04/19 06:57:26;;;;;;;13.67;10.20;;;;;;;4.69;100.00;61303.44;5112742;28;20509;-72
2022/04/19 06:59:52;;;;;;;18.23;10.70;;;;;;;4.71;100.00;61303.06;5112861;28;20822;-72
2022/04/19 07:02:21;;;;;;;16.00;10.53;;;;;;;4.67;100.00;61303.84;5112982;28;20449;-72
2022/04/19 07:04:48;;;;;;;13.70;10.37;;;;;;;5.07;100.00;61346.44;5125830;27;20937;-72
2022/04/19 07:07:15;;;;;;;17.07;10.60;;;;;;;5.37;100.00;61375.88;5133318;27;20443;-73
2022/04/19 07:09:41;;;;;;;16.87;10.57;;;;;;;5.33;100.00;61371.63;5133801;27;20472;-72
2022/04/19 07:12:09;;;;;;;14.40;9.43;;;;;;;5.22;100.00;61362.41;5133318;27;20432;-71
2022/04/19 07:14:37;;;;;;;18.53;11.40;;;;;;;5.08;100.00;61344.97;5133234;27;20825;-73
2022/04/19 07:17:04;;;;;;;13.97;8.93;;;;;;;5.08;100.00;61347.50;5133384;27;20490;-71
2022/04/19 07:26:37;;;;;;;14.23;8.70;;;;;;;5.19;100.00;61359.22;5133125;27;20440;-72
2022/04/19 07:27:49;;;;;;;12.40;7.50;;;;;;;5.27;100.00;61367.75;5106446;28;20435;-73
2022/04/19 07:30:17;;;;;;;15.03;6.87;;;;;;;5.39;100.00;61375.47;5109631;28;20492;-73
2022/04/19 07:32:44;;;;;;;12.50;7.47;;;;;;;5.34;100.00;61372.66;5112272;28;20437;-73
2022/04/19 07:35:12;;;;;;;12.87;8.30;;;;;;;5.63;100.00;61405.56;5111224;28;20503;-72
2022/04/19 07:37:39;;;;;;;12.03;7.30;;;;;;;5.84;100.00;61423.47;5111968;28;20535;-73
2022/04/19 07:40:07;;;;;;;9.53;6.80;;;;;;;6.07;100.00;61447.44;5112385;28;20878;-72
2022/04/19 07:42:33;;;;;;;10.67;6.73;;;;;;;6.58;100.00;61503.84;5111880;28;20444;-72
2022/04/19 07:45:01;;;;;;;10.63;6.77;;;;;;;6.82;100.00;61529.44;5110620;28;20444;-72
2022/04/19 07:47:28;;;;;;;8.67;4.93;;;;;;;7.08;100.00;61559.19;5112081;28;20483;-73
2022/04/19 07:49:57;;;;;;;5.93;5.32;;;;;;;7.46;100.00;61599.75;5109939;28;20466;-73
2022/04/19 07:52:26;;;;;;;3.87;3.23;;;;;;;7.23;100.00;61570.13;5112140;28;20665;-71
2022/04/19 07:54:53;;;;;;;5.73;3.33;;;;;;;7.46;100.00;61600.31;5112141;28;20533;-72
2022/04/19 07:57:20;;;;;;;5.20;3.90;;;;;;;7.66;100.00;61616.59;5111922;28;20475;-72
2022/04/19 07:59:47;;;;;;;5.40;3.27;;;;;;;7.96;100.00;61647.56;5111857;28;20445;-72
2022/04/19 08:02:15;;;;;;;3.73;3.37;;;;;;;7.96;100.00;61650.09;5112111;28;20449;-72
2022/04/19 08:04:41;;;;;;;5.27;3.97;;;;;;;7.97;100.00;61651.19;5111758;28;20817;-72
2022/04/19 08:07:08;;;;;;;4.10;3.23;;;;;;;8.08;100.00;61660.94;5111558;28;20509;-72
2022/04/19 08:09:36;;;;;;;4.70;3.37;;;;;;;8.20;100.00;61675.75;5111760;28;20444;-72
2022/04/19 08:12:03;;;;;;;6.03;3.87;;;;;;;8.02;100.00;61654.50;5111946;28;20827;-72
2022/04/19 08:14:30;;;;;;;5.17;3.73;;;;;;;7.98;100.00;61654.78;5111784;28;21006;-72
2022/04/19 08:16:57;;;;;;;6.63;3.90;;;;;;;7.98;100.00;61657.31;5111798;28;21045;-71
2022/04/19 08:19:24;;;;;;;4.10;3.27;;;;;;;8.00;100.00;61654.38;5111758;28;20437;-72
2022/04/19 08:21:51;;;;;;;5.43;4.20;;;;;;;7.93;100.00;61644.38;5111776;28;20498;-71
2022/04/19 08:24:18;;;;;;;6.87;4.93;;;;;;;8.08;100.00;61662.91;5111511;28;20529;-73
2022/04/19 08:26:47;;;;;;;7.03;3.67;;;;;;;8.17;100.00;61675.09;5111978;28;20437;-72
2022/04/19 08:29:14;;;;;;;4.80;3.60;;;;;;;8.20;100.00;61678.28;5111306;28;20864;-71
2022/04/19 08:31:41;;;;;;;5.10;3.77;;;;;;;7.99;100.00;61655.84;5111754;28;20518;-74
2022/04/19 08:34:07;;;;;;;8.63;3.90;;;;;;;7.39;100.00;61592.81;5111515;28;20445;-72
2022/04/19 08:36:35;;;;;;;4.57;3.83;;;;;;;7.73;100.00;61623.00;5111528;28;20440;-74
2022/04/19 08:39:02;;;;;;;5.70;3.57;;;;;;;7.65;100.00;61614.97;5111388;28;20552;-73
2022/04/19 08:41:29;;;;;;;5.27;3.70;;;;;;;7.77;100.00;61627.28;5111551;28;20850;-72
2022/04/19 08:43:57;;;;;;;8.33;4.00;;;;;;;7.99;100.00;61656.38;5111801;28;20472;-73
2022/04/19 08:46:26;;;;;;;4.90;3.20;;;;;;;8.13;100.00;61671.31;5114171;28;20440;-73
2022/04/19 08:48:55;;;;;;;3.80;3.50;;;;;;;8.25;100.00;61681.13;5115649;28;20436;-74
2022/04/19 08:51:22;;;;;;;5.30;3.13;;;;;;;8.12;100.00;61664.66;5115168;28;20444;-73
2022/04/19 08:59:27;;;;;;;4.10;3.00;;;;;;;8.22;100.00;61675.34;5116313;28;20486;-73
2022/04/19 09:01:54;;;;;;;4.40;3.47;;;;;;;8.60;100.00;61721.06;5116135;28;20493;-72
2022/04/19 09:04:23;;;;;;;4.70;3.20;;;;;;;9.17;100.00;61776.41;5121717;27;20505;-72
2022/04/19 09:06:50;;;;;;;5.03;3.73;;;;;;;9.62;100.00;61829.09;5136000;27;20530;-73
2022/04/19 09:09:22;;;;;;;5.03;3.43;;;;;;;9.67;100.00;61832.44;5134566;27;20450;-71
2022/04/19 09:11:49;;;;;;;4.50;3.10;;;;;;;9.11;100.00;61773.06;5119027;27;21060;-73
2022/04/19 09:14:16;;;;;;;3.87;3.30;;;;;;;9.34;100.00;61797.13;5094136;28;20525;-72
2022/04/19 09:16:44;;;;;;;4.40;3.30;;;;;;;9.97;100.00;61866.56;5094732;28;20559;-72
2022/04/19 09:19:11;;;;;;;6.03;3.17;;;;;;;10.30;100.00;61901.94;5094751;28;20502;-73
2022/04/19 09:21:40;;;;;;;3.23;2.93;;;;;;;10.21;100.00;61892.28;5094743;28;20195;-72
2022/04/19 09:24:22;;;;;;;6.87;4.27;;;;;;;11.02;100.00;61973.97;5094467;28;20442;-72
2022/04/19 09:26:50;;;;;;;5.40;3.50;;;;;;;9.45;100.00;61816.00;5102475;28;20634;-72
2022/04/19 09:29:18;;;;;;;4.90;3.47;;;;;;;9.66;100.00;61831.38;5114588;28;20367;-74
2022/04/19 09:31:48;;;;;;;4.77;3.90;;;;;;;8.91;100.00;61754.22;5114681;28;20298;-73
2022/04/19 09:34:28;;;;;;;4.93;3.90;;;;;;;9.51;100.00;61817.31;5114700;28;20978;-72
2022/04/19 09:36:55;;;;;;;5.77;4.17;;;;;;;9.25;100.00;61790.59;5115053;28;20432;-71
2022/04/19 09:39:29;;;;;;;5.87;4.07;;;;;;;9.15;100.00;61779.88;5114508;28;20947;-72
2022/04/19 09:42:04;;;;;;;5.57;4.10;;;;;;;9.35;100.00;61798.75;5114854;28;20433;-72
2022/04/19 09:44:32;;;;;;;7.27;4.30;;;;;;;9.23;100.00;61785.91;5114457;28;20458;-72
2022/04/19 09:47:04;;;;;;;4.97;3.83;;;;;;;9.09;100.00;61773.47;5114463;28;20639;-71
2022/04/19 09:49:48;;;;;;;6.60;4.40;;;;;;;9.69;100.00;61841.69;5114366;28;20440;-72
2022/04/19 09:52:41;;;;;;;6.80;4.30;;;;;;;9.53;100.00;61822.00;5114409;27;20436;-72
2022/04/19 09:55:11;;;;;;;5.90;4.20;;;;;;;9.26;100.00;61791.66;5114510;28;20476;-71
2022/04/19 09:57:39;;;;;;;7.07;3.90;;;;;;;9.83;100.00;61852.13;5113425;28;20494;-73
2022/04/19 10:00:08;;;;;;;6.40;5.00;;;;;;;10.24;100.00;61895.50;5114024;28;20444;-72
2022/04/19 10:08:19;;;;;;;6.10;3.30;;;;;;;10.34;100.00;61906.22;5094032;28;20264;-71
2022/04/19 10:10:47;;;;;;;6.43;3.33;;;;;;;10.81;100.00;61956.00;5114572;28;20523;-71
2022/04/19 10:13:14;;;;;;;6.80;3.90;;;;;;;11.34;100.00;62017.94;5113912;28;20286;-70
2022/04/19 10:15:42;;;;;;;4.50;3.03;;;;;;;12.05;100.00;62093.03;5114167;28;20520;-72
2022/04/19 10:18:12;;;;;;;4.60;3.70;;;;;;;11.99;100.00;62081.50;5113667;28;20215;-72
2022/04/19 10:20:42;;;;;;;6.83;3.53;;;;;;;12.45;100.00;62128.84;5113623;28;20285;-73
2022/04/19 10:23:11;;;;;;;5.00;4.07;;;;;;;12.60;100.00;62146.94;5113524;28;20603;-74
2022/04/19 10:25:43;;;;;;;6.23;4.13;;;;;;;12.90;100.00;62176.06;5113292;28;20630;-73
2022/04/19 10:28:11;;;;;;;5.83;3.80;;;;;;;12.19;100.00;62103.50;5113772;28;20195;-73
2022/04/19 10:30:39;;;;;;;9.80;4.40;;;;;;;13.12;100.00;62204.81;5113587;28;20765;-72
2022/04/19 10:33:44;;;;;;;4.07;3.67;;;;;;;13.49;100.00;62234.31;5113651;28;20199;-73
2022/04/19 10:36:17;;;;;;;7.30;4.00;;;;;;;13.88;100.00;62283.91;5113608;28;20702;-73
2022/04/19 10:38:46;;;;;;;6.50;4.07;;;;;;;13.67;100.00;62261.34;5108916;28;20230;-74
2022/04/19 10:41:53;;;;;;;7.20;3.63;;;;;;;12.41;100.00;62126.56;5112824;28;20195;-75
2022/04/19 10:44:36;;;;;;;7.33;4.73;;;;;;;11.17;100.00;61994.06;5093692;28;20198;-74
2022/04/19 10:47:05;;;;;;;5.73;4.70;;;;;;;10.75;100.00;61947.56;5113682;28;20297;-71
2022/04/19 10:49:47;;;;;;;6.70;5.03;;;;;;;10.65;100.00;61939.41;5113485;28;20206;-71
2022/04/19 10:52:47;;;;;;;7.23;4.70;;;;;;;10.68;100.00;61942.63;5112595;28;20219;-72
2022/04/19 10:55:21;;;;;;;6.50;4.60;;;;;;;10.81;100.00;61956.56;5113319;28;20292;-72
2022/04/19 11:00:45;;;;;;;6.23;4.10;;;;;;;11.76;100.00;62057.34;5113235;28;20202;-73
2022/04/19 11:03:13;;;;;;;15.37;4.50;;;;;;;11.38;100.00;62014.03;5112627;28;20212;-72
2022/04/19 11:05:42;;;;;;;9.60;4.60;;;;;;;11.01;100.00;61978.00;5112971;28;20199;-72
2022/04/19 11:08:35;;;;;;;9.10;4.40;;;;;;;10.56;100.00;61929.78;5112702;28;20223;-72
2022/04/19 11:11:44;;;;;;;3.63;3.00;;;;;;;9.54;100.00;61818.53;5104589;28;20618;-73
2022/04/19 11:14:44;;;;;;;7.40;4.00;;;;;;;9.69;100.00;61836.59;5082351;28;20198;-72
2022/04/19 11:17:23;;;;;;;3.90;3.37;;;;;;;10.00;100.00;61867.25;5112220;28;20569;-73
2022/04/19 11:19:54;;;;;;;3.47;2.33;;;;;;;10.45;100.00;61915.44;5112506;28;20444;-72
2022/04/19 11:22:42;;;;;;;5.37;2.87;;;;;;;10.76;100.00;61951.22;5112495;28;20524;-72
2022/04/19 11:25:09;;;;;;;3.60;2.43;;;;;;;10.79;100.00;61954.41;5111764;28;20203;-72
2022/04/19 11:28:15;;;;;;;2.53;2.10;;;;;;;10.35;100.00;61902.19;5111912;28;20445;-72
2022/04/19 11:31:14;;;;;;;7.60;4.27;;;;;;;10.73;100.00;61950.53;5094349;28;20441;-72
2022/04/19 11:33:41;;;;;;;6.83;3.70;;;;;;;11.21;100.00;61996.34;5111701;28;20500;-73
2022/04/19 11:36:09;;;;;;;10.83;2.53;;;;;;;11.57;100.00;62036.97;5109643;28;20219;-73
2022/04/19 11:38:40;;;;;;;4.10;2.77;;;;;;;11.66;100.00;62046.63;5110789;28;20191;-72
2022/04/19 11:46:46;;;;;;;3.73;2.50;;;;;;;11.44;100.00;62020.47;5111531;28;20257;-74
2022/04/19 11:49:34;;;;;;;3.90;2.80;;;;;;;12.22;100.00;62101.59;5111606;28;20661;-73
2022/04/19 11:52:02;;;;;;;8.43;2.90;;;;;;;13.08;100.00;62192.84;5112129;28;20579;-73
2022/04/19 11:54:31;;;;;;;2.30;1.90;;;;;;;13.05;100.00;62187.06;5112005;28;20203;-72
2022/04/19 11:57:00;;;;;;;3.87;2.10;;;;;;;13.04;100.00;62193.69;5111812;28;20231;-73
2022/04/19 11:59:27;;;;;;;3.00;2.70;;;;;;;12.73;100.00;62164.00;5111770;28;20248;-73
2022/04/19 12:01:56;;;;;;;4.00;2.70;;;;;;;11.99;100.00;62076.91;5111949;28;20195;-72
2022/04/19 12:04:24;;;;;;;3.20;2.53;;;;;;;10.98;100.00;61974.78;5111948;28;20198;-73
2022/04/19 12:06:53;;;;;;;4.23;2.57;;;;;;;10.83;100.00;61955.59;5111790;28;20202;-72
2022/04/19 12:09:22;;;;;;;2.40;2.10;;;;;;;10.49;100.00;61919.72;5110243;28;20206;-73
2022/04/19 12:11:49;;;;;;;4.97;2.40;;;;;;;10.27;100.00;61898.72;5110982;28;20234;-72
2022/04/19 12:14:27;;;;;;;5.50;2.30;;;;;;;9.41;100.00;61804.09;5110881;28;20582;-72
2022/04/19 12:17:06;;;;;;;4.40;2.30;;;;;;;9.64;100.00;61831.25;5111240;28;20241;-72
2022/04/19 12:19:39;;;;;;;5.40;2.43;;;;;;;9.23;100.00;61785.91;5111654;28;20444;-72
2022/04/19 12:22:20;;;;;;;2.53;2.10;;;;;;;8.94;100.00;61754.34;5111892;28;20441;-72